createdAt,value
2023-02-22T00:01:19.166Z,4.81
2023-02-22T00:04:21.287Z,4.70
2023-02-22T00:07:23.821Z,4.69
2023-02-22T00:10:27.338Z,4.72
2023-02-22T00:13:29.628Z,4.62
2023-02-22T00:16:31.721Z,4.59
2023-02-22T00:19:33.985Z,4.55
2023-02-22T00:22:35.733Z,4.46
2023-02-22T00:25:38.738Z,4.50
2023-02-22T00:28:42.329Z,4.46
2023-02-22T00:31:44.172Z,4.50
2023-02-22T00:34:47.795Z,4.44
2023-02-22T00:37:50.430Z,4.34
2023-02-22T00:40:53.447Z,4.27
2023-02-22T00:43:55.062Z,4.30
2023-02-22T00:46:56.712Z,4.17
2023-02-22T00:49:58.456Z,4.14
2023-02-22T00:53:01.921Z,4.11
2023-02-22T00:56:05.848Z,4.22
2023-02-22T00:59:07.660Z,4.14
2023-02-22T01:02:10.535Z,4.06
2023-02-22T01:05:14.643Z,3.91
2023-02-22T01:08:17.736Z,3.88
2023-02-22T01:11:22.243Z,3.78
2023-02-22T01:14:26.645Z,3.76
2023-02-22T01:17:28.458Z,3.65
2023-02-22T01:20:31.472Z,3.65
2023-02-22T01:23:33.450Z,3.80
2023-02-22T01:26:37.846Z,3.72
2023-02-22T01:29:39.670Z,3.76
2023-02-22T01:32:42.346Z,3.76
2023-02-22T01:35:46.133Z,3.65
2023-02-22T01:38:47.770Z,3.73
2023-02-22T01:41:53.538Z,3.68
2023-02-22T01:45:34.082Z,3.60
2023-02-22T01:48:41.440Z,3.57
2023-02-22T01:51:46.581Z,3.38
2023-02-22T01:54:51.457Z,3.43
2023-02-22T01:57:54.988Z,3.47
2023-02-22T02:01:48.043Z,3.44
2023-02-22T02:04:51.643Z,3.41
2023-02-22T02:07:54.177Z,3.51
2023-02-22T02:10:58.006Z,3.49
2023-02-22T02:14:01.290Z,3.55
2023-02-22T02:17:07.111Z,3.46
2023-02-22T02:20:17.210Z,3.46
2023-02-22T02:23:45.345Z,3.54
2023-02-22T02:27:12.330Z,3.42
2023-02-22T02:30:41.246Z,3.40
2023-02-22T02:33:53.096Z,3.33
2023-02-22T02:37:02.983Z,3.47
2023-02-22T02:40:12.086Z,3.41
2023-02-22T02:43:21.464Z,3.37
2023-02-22T02:46:27.383Z,3.41
2023-02-22T02:49:36.373Z,3.55
2023-02-22T02:52:44.129Z,3.54
2023-02-22T02:55:45.816Z,3.40
2023-02-22T02:58:49.854Z,3.30
2023-02-22T03:02:03.145Z,3.29
2023-02-22T03:05:26.241Z,3.24
2023-02-22T03:08:35.117Z,3.18
2023-02-22T03:11:48.519Z,3.10
2023-02-22T03:15:02.277Z,3.02
2023-02-22T03:18:08.849Z,2.93
2023-02-22T03:21:21.672Z,3.02
2023-02-22T03:24:27.968Z,3.02
2023-02-22T03:27:37.216Z,2.90
2023-02-22T03:30:49.085Z,2.82
2023-02-22T03:33:54.363Z,2.81
2023-02-22T03:37:05.652Z,2.75
2023-02-22T03:40:14.652Z,2.67
2023-02-22T03:43:25.044Z,2.79
2023-02-22T03:46:31.613Z,2.65
2023-02-22T03:49:37.515Z,2.53
2023-02-22T03:52:44.258Z,2.48
2023-02-22T03:55:55.526Z,2.56
2023-02-22T03:58:57.792Z,2.62
2023-02-22T04:01:59.801Z,2.53
2023-02-22T04:05:02.124Z,2.56
2023-02-22T04:08:06.433Z,2.50
2023-02-22T04:11:08.370Z,2.56
2023-02-22T04:14:10.282Z,2.43
2023-02-22T04:17:12.121Z,2.36
2023-02-22T04:20:19.888Z,2.35
2023-02-22T04:23:33.844Z,2.36
2023-02-22T04:26:36.769Z,2.44
2023-02-22T04:29:43.428Z,2.38
2023-02-22T04:32:46.009Z,2.40
2023-02-22T04:35:49.618Z,2.34
2023-02-22T04:38:53.481Z,2.34
2023-02-22T04:41:58.978Z,2.27
2023-02-22T04:45:00.949Z,2.51
2023-02-22T04:48:02.998Z,2.46
2023-02-22T04:51:06.121Z,2.43
2023-02-22T04:54:09.761Z,2.46
2023-02-22T04:57:17.565Z,2.41
2023-02-22T05:00:22.827Z,2.35
2023-02-22T05:03:28.371Z,2.39
2023-02-22T05:06:33.296Z,2.36
2023-02-22T05:09:36.368Z,2.40
2023-02-22T05:12:38.245Z,2.33
2023-02-22T05:15:39.990Z,2.34
2023-02-22T05:18:42.124Z,2.31
2023-02-22T05:21:46.457Z,2.34
2023-02-22T05:24:58.848Z,2.21
2023-02-22T05:28:03.340Z,2.18
2023-02-22T05:31:05.679Z,2.16
2023-02-22T05:34:09.890Z,2.10
2023-02-22T05:37:11.641Z,2.09
2023-02-22T05:40:17.389Z,2.16
2023-02-22T05:43:20.264Z,2.21
2023-02-22T05:46:22.010Z,2.22
2023-02-22T05:49:23.937Z,2.27
2023-02-22T05:52:25.996Z,2.38
2023-02-22T05:55:29.093Z,2.45
2023-02-22T05:58:30.858Z,2.44
2023-02-22T06:01:32.587Z,2.52
2023-02-22T06:04:34.400Z,2.55
2023-02-22T06:07:36.253Z,2.53
2023-02-22T06:10:39.460Z,2.47
2023-02-22T06:13:41.380Z,2.54
2023-02-22T06:16:43.223Z,2.65
2023-02-22T06:19:45.677Z,2.74
2023-02-22T06:22:47.768Z,2.76
2023-02-22T06:25:53.426Z,2.69
2023-02-22T06:29:02.027Z,2.65
2023-02-22T06:32:05.837Z,2.69
2023-02-22T06:35:09.940Z,2.68
2023-02-22T06:38:11.688Z,2.70
2023-02-22T06:41:15.856Z,2.69
2023-02-22T06:44:17.917Z,2.72
2023-02-22T06:47:20.559Z,2.64
2023-02-22T06:50:25.134Z,2.63
2023-02-22T06:53:26.891Z,2.68
2023-02-22T06:56:30.243Z,2.67
2023-02-22T06:59:31.967Z,2.74
2023-02-22T07:02:33.644Z,2.79
2023-02-22T07:05:36.027Z,2.85
2023-02-22T07:08:39.258Z,3.02
2023-02-22T07:11:43.224Z,3.27
2023-02-22T07:14:44.925Z,3.46
2023-02-22T07:17:47.004Z,3.52
2023-02-22T07:20:52.101Z,3.60
2023-02-22T07:23:56.008Z,3.69
2023-02-22T07:27:01.097Z,3.75
2023-02-22T07:30:15.982Z,3.89
2023-02-22T07:33:18.359Z,4.04
2023-02-22T07:36:20.166Z,4.12
2023-02-22T07:39:21.935Z,4.23
2023-02-22T07:42:25.034Z,4.35
2023-02-22T07:45:28.792Z,4.41
2023-02-22T07:48:31.738Z,4.39
2023-02-22T07:51:33.547Z,4.40
2023-02-22T07:54:38.041Z,4.39
2023-02-22T07:57:43.338Z,4.35
2023-02-22T08:00:47.355Z,4.49
2023-02-22T08:03:57.049Z,4.56
2023-02-22T08:06:58.852Z,4.62
2023-02-22T08:10:00.885Z,4.57
2023-02-22T08:13:08.348Z,4.68
2023-02-22T08:16:10.178Z,4.84
2023-02-22T08:19:11.944Z,4.90
2023-02-22T08:22:13.615Z,5.05
2023-02-22T08:25:16.708Z,5.33
2023-02-22T08:28:23.232Z,5.56
2023-02-22T08:31:25.341Z,5.71
2023-02-22T08:34:27.620Z,5.90
2023-02-22T08:37:39.303Z,6.03
2023-02-22T08:40:41.356Z,6.16
2023-02-22T08:43:44.465Z,6.23
2023-02-22T08:46:48.864Z,6.31
2023-02-22T08:49:50.770Z,6.50
2023-02-22T08:52:53.575Z,6.61
2023-02-22T08:55:55.442Z,6.67
2023-02-22T08:58:58.782Z,6.75
2023-02-22T09:02:02.891Z,6.68
2023-02-22T09:05:05.777Z,6.81
2023-02-22T09:08:10.224Z,6.97
2023-02-22T09:11:12.362Z,7.02
2023-02-22T09:14:16.506Z,7.14
2023-02-22T09:17:18.451Z,7.20
2023-02-22T09:20:21.685Z,7.39
2023-02-22T09:23:23.941Z,7.62
2023-02-22T09:26:29.524Z,7.38
2023-02-22T09:29:32.765Z,7.49
2023-02-22T09:32:36.493Z,7.54
2023-02-22T09:35:42.398Z,7.62
2023-02-22T09:38:44.392Z,7.87
2023-02-22T09:41:56.310Z,7.97
2023-02-22T09:45:06.261Z,8.04
2023-02-22T09:48:21.264Z,8.44
2023-02-22T09:51:27.554Z,8.58
2023-02-22T09:54:34.316Z,8.75
2023-02-22T09:57:41.604Z,8.98
2023-02-22T10:00:51.498Z,9.25
2023-02-22T10:04:01.530Z,9.26
2023-02-22T10:07:12.329Z,9.30
2023-02-22T10:10:17.526Z,9.23
2023-02-22T10:13:28.946Z,9.29
2023-02-22T10:16:40.659Z,9.79
2023-02-22T10:19:54.751Z,9.78
2023-02-22T10:23:05.332Z,9.76
2023-02-22T10:26:16.430Z,9.96
2023-02-22T10:29:24.635Z,10.02
2023-02-22T10:32:35.450Z,10.12
2023-02-22T10:35:41.135Z,10.41
2023-02-22T10:38:53.223Z,10.36
2023-02-22T10:42:05.767Z,10.50
2023-02-22T10:45:20.251Z,10.50
2023-02-22T10:48:26.367Z,10.49
2023-02-22T10:51:31.505Z,10.70
2023-02-22T10:54:39.626Z,10.85
2023-02-22T10:57:44.469Z,10.78
2023-02-22T11:00:46.748Z,10.76
2023-02-22T11:04:00.104Z,10.95
2023-02-22T11:07:10.776Z,11.30
2023-02-22T11:10:12.861Z,11.37
2023-02-22T11:13:19.194Z,11.45
2023-02-22T11:16:28.118Z,11.80
2023-02-22T11:19:33.247Z,11.52
2023-02-22T11:22:41.075Z,11.52
2023-02-22T11:25:43.386Z,11.91
2023-02-22T11:28:55.958Z,11.92
2023-02-22T11:31:59.277Z,12.07
2023-02-22T11:35:20.792Z,12.27
2023-02-22T11:38:24.529Z,12.12
2023-02-22T11:41:28.071Z,12.20
2023-02-22T11:48:05.406Z,12.14
2023-02-22T11:51:17.527Z,12.35
2023-02-22T11:54:33.298Z,12.13
2023-02-22T11:57:50.330Z,12.29
2023-02-22T12:00:58.896Z,12.47
2023-02-22T12:04:42.406Z,12.98
2023-02-22T12:07:56.485Z,12.78
2023-02-22T12:11:06.353Z,13.22
2023-02-22T12:14:19.183Z,13.33
2023-02-22T12:17:43.675Z,13.53
2023-02-22T12:20:54.960Z,13.42
2023-02-22T12:24:04.544Z,13.74
2023-02-22T12:27:10.197Z,13.88
2023-02-22T12:30:18.028Z,13.88
2023-02-22T12:33:27.036Z,14.19
2023-02-22T12:36:36.783Z,14.15
2023-02-22T12:39:53.573Z,14.24
2023-02-22T12:43:00.755Z,14.21
2023-02-22T12:46:06.974Z,14.33
2023-02-22T12:49:17.702Z,14.53
2023-02-22T12:52:29.162Z,14.56
2023-02-22T12:55:39.154Z,14.37
2023-02-22T12:58:49.393Z,14.24
2023-02-22T13:01:55.079Z,14.68
2023-02-22T13:04:57.291Z,14.44
2023-02-22T13:08:17.891Z,14.94
2023-02-22T13:11:27.993Z,15.18
2023-02-22T13:14:40.414Z,14.71
2023-02-22T13:18:08.435Z,14.83
2023-02-22T13:21:16.530Z,15.22
2023-02-22T13:24:26.094Z,15.26
2023-02-22T13:27:37.282Z,15.28
2023-02-22T13:30:43.163Z,15.79
2023-02-22T13:34:01.288Z,16.64
2023-02-22T13:37:34.242Z,16.69
2023-02-22T13:41:18.777Z,17.29
2023-02-22T13:44:53.510Z,17.14
2023-02-22T13:49:54.951Z,16.83
2023-02-22T13:52:58.840Z,16.09
2023-02-22T13:56:01.152Z,16.00
2023-02-22T13:59:04.972Z,16.29
2023-02-22T14:02:08.067Z,17.28
2023-02-22T14:05:51.971Z,17.10
2023-02-22T14:08:53.923Z,16.70
2023-02-22T14:11:56.973Z,16.40
2023-02-22T14:15:32.714Z,15.62
2023-02-22T14:18:37.545Z,15.88
2023-02-22T14:21:56.231Z,15.71
2023-02-22T14:24:58.754Z,16.00
2023-02-22T14:28:02.860Z,16.14
2023-02-22T14:31:07.717Z,15.72
2023-02-22T14:34:11.076Z,16.03
2023-02-22T14:37:18.442Z,15.66
2023-02-22T14:40:25.818Z,15.55
2023-02-22T14:43:27.714Z,15.79
2023-02-22T14:46:34.821Z,15.77
2023-02-22T14:49:42.809Z,15.66
2023-02-22T14:52:49.680Z,15.57
2023-02-22T14:55:56.711Z,15.28
2023-02-22T14:59:13.213Z,14.95
2023-02-22T15:02:15.696Z,15.10
2023-02-22T15:05:20.768Z,15.04
2023-02-22T15:08:28.362Z,14.99
2023-02-22T15:11:34.412Z,14.98
2023-02-22T15:14:41.679Z,14.96
2023-02-22T15:17:46.084Z,14.75
2023-02-22T15:20:49.240Z,14.73
2023-02-22T15:23:55.312Z,14.64
2023-02-22T15:27:05.915Z,14.53
2023-02-22T15:30:17.018Z,14.37
2023-02-22T15:33:24.690Z,14.22
2023-02-22T15:36:31.103Z,14.28
2023-02-22T15:39:34.610Z,14.23
2023-02-22T15:42:43.942Z,14.12
2023-02-22T15:45:46.283Z,13.99
2023-02-22T15:49:07.390Z,13.94
2023-02-22T15:52:19.700Z,13.83
2023-02-22T15:55:26.808Z,13.72
2023-02-22T15:58:29.962Z,13.65
2023-02-22T16:01:37.774Z,13.61
2023-02-22T16:04:42.160Z,13.51
2023-02-22T16:07:48.929Z,13.42
2023-02-22T16:10:59.827Z,13.30
2023-02-22T16:14:04.901Z,13.27
2023-02-22T16:17:29.607Z,13.10
2023-02-22T16:20:36.153Z,12.99
2023-02-22T16:23:47.294Z,12.98
2023-02-22T16:27:15.918Z,12.61
2023-02-22T16:30:26.637Z,12.38
2023-02-22T16:33:33.895Z,12.46
2023-02-22T16:36:41.215Z,12.19
2023-02-22T16:39:46.070Z,12.03
2023-02-22T16:42:52.280Z,11.92
2023-02-22T16:45:54.175Z,11.83
2023-02-22T16:48:56.097Z,11.77
2023-02-22T16:52:01.411Z,11.63
2023-02-22T16:55:03.359Z,11.50
2023-02-22T16:58:09.792Z,11.47
2023-02-22T17:01:13.195Z,11.51
2023-02-22T17:04:17.994Z,11.52
2023-02-22T17:07:24.035Z,11.32
2023-02-22T17:10:26.794Z,11.28
2023-02-22T17:13:30.280Z,11.34
2023-02-22T17:16:32.172Z,11.22
2023-02-22T17:19:33.917Z,11.21
2023-02-22T17:22:35.650Z,11.30
2023-02-22T17:25:42.596Z,11.28
2023-02-22T17:28:48.332Z,11.11
2023-02-22T17:31:52.319Z,11.33
2023-02-22T17:34:54.148Z,11.30
2023-02-22T17:37:57.337Z,11.21
2023-02-22T17:41:01.241Z,11.31
2023-02-22T17:44:04.694Z,11.05
2023-02-22T17:47:06.552Z,11.20
2023-02-22T17:50:09.516Z,10.98
2023-02-22T17:53:11.975Z,11.19
2023-02-22T17:56:18.544Z,10.99
2023-02-22T17:59:21.840Z,10.99
2023-02-22T18:02:23.904Z,10.95
2023-02-22T18:05:26.675Z,11.02
2023-02-22T18:08:32.041Z,10.87
2023-02-22T18:11:33.921Z,10.55
2023-02-22T18:14:37.793Z,10.61
2023-02-22T18:17:39.756Z,10.68
2023-02-22T18:20:43.765Z,10.49
2023-02-22T18:23:46.051Z,10.38
2023-02-22T18:26:48.016Z,10.42
2023-02-22T18:29:51.659Z,10.50
2023-02-22T18:32:53.618Z,10.50
2023-02-22T18:35:55.472Z,10.26
2023-02-22T18:38:58.009Z,10.57
2023-02-22T18:41:59.982Z,10.47
2023-02-22T18:45:05.366Z,10.04
2023-02-22T18:48:07.276Z,10.05
2023-02-22T18:51:11.285Z,10.17
2023-02-22T18:54:13.280Z,10.11
2023-02-22T18:57:15.650Z,10.05
2023-02-22T19:00:24.841Z,9.96
2023-02-22T19:03:27.064Z,10.01
2023-02-22T19:06:29.132Z,9.99
2023-02-22T19:09:30.932Z,9.91
2023-02-22T19:12:33.758Z,9.77
2023-02-22T19:15:37.290Z,9.82
2023-02-22T19:18:39.302Z,9.71
2023-02-22T19:21:41.163Z,9.54
2023-02-22T19:24:45.970Z,9.54
2023-02-22T19:27:48.086Z,9.52
2023-02-22T19:30:51.551Z,9.75
2023-02-22T19:33:53.626Z,9.66
2023-02-22T19:36:56.041Z,9.59
2023-02-22T19:39:57.696Z,9.72
2023-02-22T19:42:59.597Z,9.69
2023-02-22T19:46:05.678Z,9.56
2023-02-22T19:49:07.843Z,9.44
2023-02-22T19:52:09.763Z,9.47
2023-02-22T19:55:14.392Z,9.36
2023-02-22T19:58:16.300Z,9.56
2023-02-22T20:01:24.212Z,9.57
2023-02-22T20:04:30.352Z,9.43
2023-02-22T20:07:32.293Z,9.49
2023-02-22T20:10:37.508Z,9.62
2023-02-22T20:13:40.863Z,9.59
2023-02-22T20:16:44.100Z,9.55
2023-02-22T20:19:54.210Z,9.66
2023-02-22T20:22:55.905Z,9.59
2023-02-22T20:25:58.074Z,9.45
2023-02-22T20:29:00.895Z,9.29
2023-02-22T20:32:05.579Z,9.12
2023-02-22T20:35:07.841Z,9.06
2023-02-22T20:38:11.558Z,8.98
2023-02-22T20:41:15.093Z,8.86
2023-02-22T20:44:18.651Z,8.81
2023-02-22T20:47:21.723Z,8.82
2023-02-22T20:50:23.436Z,8.66
2023-02-22T20:53:25.350Z,8.71
2023-02-22T20:56:29.282Z,8.78
2023-02-22T20:59:31.023Z,9.02
2023-02-22T21:02:34.750Z,9.24
2023-02-22T21:05:41.703Z,9.26
2023-02-22T21:08:44.434Z,9.24
2023-02-22T21:11:47.323Z,9.49
2023-02-22T21:14:49.024Z,9.60
2023-02-22T21:17:53.940Z,9.59
2023-02-22T21:20:55.589Z,9.68
2023-02-22T21:24:01.537Z,9.53
2023-02-22T21:27:03.750Z,9.54
2023-02-22T21:30:06.912Z,9.65
2023-02-22T21:33:10.664Z,9.88
2023-02-22T21:36:13.627Z,9.93
2023-02-22T21:39:19.082Z,10.00
2023-02-22T21:42:20.897Z,10.02
2023-02-22T21:45:22.663Z,10.05
2023-02-22T21:48:26.654Z,10.00
2023-02-22T21:51:33.122Z,10.13
2023-02-22T21:54:34.972Z,10.14
2023-02-22T21:57:37.611Z,10.03
2023-02-22T22:00:42.718Z,10.12
2023-02-22T22:03:48.676Z,10.24
2023-02-22T22:06:52.764Z,10.18
2023-02-22T22:09:56.545Z,10.18
2023-02-22T22:12:59.437Z,10.26
2023-02-22T22:16:03.989Z,10.22
2023-02-22T22:19:08.311Z,10.18
2023-02-22T22:22:10.703Z,10.11
2023-02-22T22:25:12.828Z,10.13
2023-02-22T22:28:14.518Z,10.10
2023-02-22T22:31:17.578Z,10.18
2023-02-22T22:34:24.386Z,10.20
2023-02-22T22:37:27.947Z,10.26
2023-02-22T22:40:29.789Z,10.31
2023-02-22T22:43:31.935Z,10.17
2023-02-22T22:46:33.859Z,10.06
2023-02-22T22:49:40.300Z,10.02
2023-02-22T22:52:42.049Z,9.98
2023-02-22T22:55:44.143Z,9.87
2023-02-22T22:58:48.205Z,9.83
2023-02-22T23:01:52.566Z,9.77
2023-02-22T23:04:55.863Z,9.88
2023-02-22T23:07:57.780Z,9.89
2023-02-22T23:11:10.251Z,9.87
2023-02-22T23:14:13.663Z,9.85
2023-02-22T23:17:42.394Z,9.79
2023-02-22T23:24:47.366Z,9.80
2023-02-22T23:28:14.686Z,9.89
2023-02-22T23:31:18.009Z,9.94
2023-02-22T23:34:23.222Z,10.00
2023-02-22T23:37:26.577Z,10.03
2023-02-22T23:40:31.968Z,9.99
2023-02-22T23:43:34.035Z,9.99
2023-02-22T23:46:36.481Z,9.93
2023-02-22T23:49:38.841Z,9.95
2023-02-22T23:52:43.787Z,9.92
2023-02-22T23:59:27.206Z,9.74
